Terminal Aerodrome Forecast
Issued by NWS Rapid City, SD

Home | Current Version | Previous Version | Text Only | Print | Product List | Glossary Off
Versions: 1 2 3 4 5 6 7 8 9 10 11 12 13 14 15 16 17 18

000
FTUS43 KUNR 121120
TAFRAP
TAF
KRAP 121120Z 1212/1312 32008KT P6SM SCT200
     FM130300 32020G30KT P6SM SCT200
     FM130800 32034G46KT P6SM SCT200=

USA.gov is the U.S. government's official web portal to all federal, state and local government web resources and services.